createdAt,value
2022-11-20T00:01:26.851Z,71.60
2022-11-20T00:04:13.834Z,68.75
2022-11-20T00:07:01.250Z,64.82
2022-11-20T00:09:48.219Z,60.92
2022-11-20T00:12:35.427Z,63.22
2022-11-20T00:15:22.387Z,69.70
2022-11-20T00:18:09.529Z,59.95
2022-11-20T00:21:05.857Z,66.75
2022-11-20T00:23:55.524Z,63.85
2022-11-20T00:26:42.463Z,59.78
2022-11-20T00:29:29.588Z,64.57
2022-11-20T00:32:16.536Z,55.30
2022-11-20T00:35:03.610Z,66.28
2022-11-20T00:37:50.594Z,65.50
2022-11-20T00:40:37.742Z,62.00
2022-11-20T00:43:25.230Z,62.42
2022-11-20T00:46:16.501Z,65.05
2022-11-20T00:49:03.697Z,64.18
2022-11-20T00:51:50.733Z,63.97
2022-11-20T00:54:37.644Z,54.88
2022-11-20T00:57:24.564Z,55.63
2022-11-20T01:00:11.786Z,70.57
2022-11-20T01:02:58.903Z,64.88
2022-11-20T01:05:45.893Z,62.63
2022-11-20T01:08:34.895Z,68.45
2022-11-20T01:11:24.987Z,80.07
2022-11-20T01:14:15.553Z,69.07
2022-11-20T01:17:02.486Z,75.07
2022-11-20T01:19:51.492Z,68.88
2022-11-20T01:22:38.489Z,67.30
2022-11-20T01:25:25.662Z,64.18
2022-11-20T01:28:12.631Z,67.65
2022-11-20T01:30:59.831Z,68.30
2022-11-20T01:33:48.122Z,65.70
2022-11-20T01:36:37.539Z,74.68
2022-11-20T01:39:26.601Z,69.15
2022-11-20T01:42:32.013Z,76.05
2022-11-20T01:46:04.134Z,72.03
2022-11-20T01:48:58.133Z,65.90
2022-11-20T01:51:58.223Z,61.88
2022-11-20T01:54:57.233Z,60.20
2022-11-20T01:57:45.428Z,65.28
2022-11-20T02:00:32.610Z,63.03
2022-11-20T02:03:21.266Z,61.22
2022-11-20T02:06:43.725Z,72.80
2022-11-20T02:09:30.638Z,67.10
2022-11-20T02:12:36.488Z,75.28
2022-11-20T02:15:27.590Z,74.68
2022-11-20T02:18:19.769Z,60.92
2022-11-20T02:21:20.391Z,67.55
2022-11-20T02:24:18.986Z,70.40
2022-11-20T02:27:10.272Z,63.33
2022-11-20T02:30:11.887Z,65.85
2022-11-20T02:32:59.609Z,69.57
2022-11-20T02:35:47.976Z,72.95
2022-11-20T02:38:35.299Z,70.53
2022-11-20T02:41:23.127Z,70.32
2022-11-20T02:44:10.134Z,68.00
2022-11-20T02:46:59.614Z,66.15
2022-11-20T02:49:46.762Z,74.60
2022-11-20T02:52:33.722Z,70.45
2022-11-20T02:55:20.729Z,66.68
2022-11-20T02:58:07.864Z,59.90
2022-11-20T03:00:55.034Z,67.38
2022-11-20T03:03:42.133Z,63.55
2022-11-20T03:06:29.362Z,64.43
2022-11-20T03:09:16.317Z,58.10
2022-11-20T03:12:03.866Z,65.53
2022-11-20T03:14:53.277Z,64.40
2022-11-20T03:17:40.504Z,72.40
2022-11-20T03:20:27.629Z,63.40
2022-11-20T03:23:14.758Z,72.45
2022-11-20T03:26:12.617Z,74.03
2022-11-20T03:29:02.148Z,70.15
2022-11-20T03:31:49.255Z,76.65
2022-11-20T03:34:36.412Z,65.78
2022-11-20T03:37:23.424Z,59.95
2022-11-20T03:40:10.860Z,60.53
2022-11-20T03:42:57.916Z,59.75
2022-11-20T03:45:45.052Z,64.10
2022-11-20T03:48:32.269Z,67.68
2022-11-20T03:51:30.679Z,63.08
2022-11-20T03:54:17.796Z,62.47
2022-11-20T03:57:04.971Z,60.65
2022-11-20T03:59:51.882Z,64.22
2022-11-20T04:02:38.819Z,64.13
2022-11-20T04:05:26.113Z,63.45
2022-11-20T04:08:13.097Z,61.40
2022-11-20T04:11:23.287Z,65.22
2022-11-20T04:14:15.624Z,68.60
2022-11-20T04:17:02.747Z,61.83
2022-11-20T04:19:49.877Z,59.30
2022-11-20T04:22:36.808Z,61.42
2022-11-20T04:25:23.766Z,57.55
2022-11-20T04:28:10.871Z,57.67
2022-11-20T04:31:31.410Z,56.22
2022-11-20T04:34:18.336Z,58.88
2022-11-20T04:37:05.261Z,58.47
2022-11-20T04:39:52.179Z,54.83
2022-11-20T04:42:39.357Z,59.80
2022-11-20T04:45:26.256Z,61.80
2022-11-20T04:48:13.249Z,60.55
2022-11-20T04:51:04.987Z,64.78
2022-11-20T04:53:52.212Z,64.22
2022-11-20T04:56:39.123Z,59.83
2022-11-20T04:59:26.181Z,57.53
2022-11-20T05:02:13.670Z,66.50
2022-11-20T05:05:00.808Z,59.00
2022-11-20T05:07:47.682Z,64.15
2022-11-20T05:10:34.643Z,61.17
2022-11-20T05:13:21.703Z,59.97
2022-11-20T05:16:11.437Z,61.22
2022-11-20T05:18:58.450Z,65.90
2022-11-20T05:21:45.400Z,64.72
2022-11-20T05:24:32.513Z,64.53
2022-11-20T05:27:19.663Z,61.85
2022-11-20T05:30:07.802Z,58.38
2022-11-20T05:32:54.888Z,56.55
2022-11-20T05:35:42.155Z,58.50
2022-11-20T05:38:29.345Z,62.60
2022-11-20T05:41:19.349Z,133.65
2022-11-20T05:44:06.330Z,80.63
2022-11-20T05:46:53.460Z,68.13
2022-11-20T05:49:40.584Z,58.17
2022-11-20T05:52:30.676Z,61.33
2022-11-20T05:55:17.698Z,57.75
2022-11-20T05:58:04.797Z,55.58
2022-11-20T06:00:52.065Z,53.15
2022-11-20T06:03:40.225Z,56.67
2022-11-20T06:06:27.291Z,57.78
2022-11-20T06:09:14.398Z,58.72
2022-11-20T06:12:01.708Z,58.97
2022-11-20T06:14:48.564Z,61.00
2022-11-20T06:17:35.497Z,57.03
2022-11-20T06:20:23.120Z,58.70
2022-11-20T06:23:10.212Z,61.03
2022-11-20T06:25:57.138Z,58.63
2022-11-20T06:28:44.428Z,59.90
2022-11-20T06:31:33.815Z,56.65
2022-11-20T06:34:20.801Z,57.25
2022-11-20T06:37:07.702Z,48.25
2022-11-20T06:39:54.584Z,54.70
2022-11-20T06:42:41.659Z,56.67
2022-11-20T06:45:28.977Z,50.45
2022-11-20T06:48:15.918Z,55.58
2022-11-20T06:51:07.936Z,60.08
2022-11-20T06:53:54.944Z,51.58
2022-11-20T06:56:42.056Z,47.30
2022-11-20T06:59:29.021Z,53.40
2022-11-20T07:02:15.954Z,51.55
2022-11-20T07:05:03.192Z,56.72
2022-11-20T07:07:50.148Z,51.45
2022-11-20T07:10:37.168Z,49.38
2022-11-20T07:13:24.379Z,55.75
2022-11-20T07:16:11.507Z,54.85
2022-11-20T07:18:58.734Z,59.28
2022-11-20T07:21:45.642Z,55.22
2022-11-20T07:24:32.577Z,64.47
2022-11-20T07:27:19.701Z,56.55
2022-11-20T07:30:07.868Z,55.72
2022-11-20T07:32:56.452Z,56.05
2022-11-20T07:35:43.424Z,65.13
2022-11-20T07:38:30.864Z,59.38
2022-11-20T07:41:17.945Z,54.08
2022-11-20T07:44:04.968Z,56.25
2022-11-20T07:46:51.851Z,64.15
2022-11-20T07:49:44.897Z,59.13
2022-11-20T07:52:31.808Z,54.13
2022-11-20T07:55:18.680Z,58.13
2022-11-20T07:58:05.592Z,53.55
2022-11-20T08:00:52.723Z,57.83
2022-11-20T08:03:39.768Z,56.53
2022-11-20T08:06:27.653Z,49.70
2022-11-20T08:09:14.557Z,53.33
2022-11-20T08:12:20.169Z,58.30
2022-11-20T08:15:12.817Z,59.05
2022-11-20T08:18:29.007Z,57.47
2022-11-20T08:21:08.970Z,60.53
2022-11-20T08:23:55.949Z,61.50
2022-11-20T08:26:43.132Z,64.57
2022-11-20T08:29:30.147Z,62.38
2022-11-20T08:32:17.086Z,60.25
2022-11-20T08:35:04.577Z,59.45
2022-11-20T08:37:51.733Z,54.00
2022-11-20T08:40:38.671Z,56.33
2022-11-20T08:43:25.636Z,59.85
2022-11-20T08:46:13.031Z,52.13
2022-11-20T08:49:00.292Z,54.38
2022-11-20T08:51:49.351Z,54.38
2022-11-20T08:54:36.288Z,53.60
2022-11-20T08:57:23.255Z,55.15
2022-11-20T09:00:12.281Z,59.10
2022-11-20T09:03:00.450Z,55.38
2022-11-20T09:05:47.368Z,54.80
2022-11-20T09:08:36.370Z,58.05
2022-11-20T09:11:23.579Z,51.58
2022-11-20T09:14:10.568Z,55.10
2022-11-20T09:16:57.807Z,52.15
2022-11-20T09:19:45.089Z,50.45
2022-11-20T09:22:32.419Z,51.22
2022-11-20T09:25:19.361Z,56.00
2022-11-20T09:28:06.369Z,57.05
2022-11-20T09:30:53.282Z,59.28
2022-11-20T09:33:40.184Z,51.65
2022-11-20T09:36:27.369Z,58.03
2022-11-20T09:39:14.313Z,55.72
2022-11-20T09:42:27.499Z,49.97
2022-11-20T09:45:39.143Z,50.88
2022-11-20T09:49:12.707Z,49.70
2022-11-20T09:52:37.720Z,48.70
2022-11-20T09:55:25.449Z,56.70
2022-11-20T09:58:51.889Z,57.83
2022-11-20T10:01:41.863Z,62.83
2022-11-20T10:04:35.547Z,59.03
2022-11-20T10:07:32.692Z,65.85
2022-11-20T10:10:41.026Z,64.82
2022-11-20T10:13:47.088Z,74.60
2022-11-20T10:16:52.866Z,63.85
2022-11-20T10:19:48.866Z,100.00
2022-11-20T10:22:53.109Z,79.53
2022-11-20T10:25:43.900Z,65.00
2022-11-20T10:29:21.093Z,60.65
2022-11-20T10:32:15.868Z,62.78
2022-11-20T10:35:35.246Z,54.15
2022-11-20T10:38:27.104Z,54.75
2022-11-20T10:41:27.183Z,48.28
2022-11-20T10:44:47.160Z,39.95
2022-11-20T10:47:34.548Z,39.78
2022-11-20T10:50:23.719Z,43.70
2022-11-20T10:53:52.136Z,39.17
2022-11-20T10:56:51.756Z,31.77
2022-11-20T11:00:02.781Z,38.05
2022-11-20T11:02:52.227Z,32.72
2022-11-20T11:05:45.485Z,33.22
2022-11-20T11:08:38.637Z,33.70
2022-11-20T11:11:29.669Z,18.27
2022-11-20T11:14:17.454Z,9.73
2022-11-20T11:17:04.397Z,4.82
2022-11-20T11:20:18.245Z,2.83
2022-11-20T11:23:05.616Z,2.40
2022-11-20T11:25:59.694Z,2.22
2022-11-20T11:29:00.326Z,3.78
2022-11-20T11:31:47.317Z,2.33
2022-11-20T11:34:34.354Z,2.13
2022-11-20T11:37:25.103Z,2.55
2022-11-20T11:40:28.301Z,2.00
2022-11-20T11:43:40.263Z,1.65
2022-11-20T11:46:37.756Z,2.08
2022-11-20T11:49:25.240Z,3.58
2022-11-20T11:52:23.626Z,1.83
2022-11-20T11:55:24.707Z,2.15
2022-11-20T11:58:42.290Z,2.80
2022-11-20T12:01:57.454Z,1.60
2022-11-20T12:04:56.121Z,2.35
2022-11-20T12:07:47.768Z,7.57
2022-11-20T12:10:50.039Z,4.45
2022-11-20T12:14:05.569Z,3.90
2022-11-20T12:16:54.224Z,2.67
2022-11-20T12:19:41.983Z,4.35
2022-11-20T12:23:23.827Z,4.72
2022-11-20T12:26:50.494Z,2.92
2022-11-20T12:30:17.959Z,1.45
2022-11-20T12:33:27.177Z,1.73
2022-11-20T12:36:42.059Z,6.85
2022-11-20T12:39:37.349Z,2.00
2022-11-20T12:42:55.983Z,2.03
2022-11-20T12:46:08.801Z,1.38
2022-11-20T12:49:18.051Z,1.40
2022-11-20T12:52:37.041Z,2.95
2022-11-20T12:55:41.876Z,1.38
2022-11-20T12:58:56.489Z,2.70
2022-11-20T13:01:52.240Z,2.05
2022-11-20T13:05:40.929Z,1.70
2022-11-20T13:08:35.928Z,1.77
2022-11-20T13:11:41.530Z,0.93
2022-11-20T13:14:38.822Z,1.75
2022-11-20T13:17:37.966Z,3.00
2022-11-20T13:20:25.463Z,1.80
2022-11-20T13:23:12.666Z,2.67
2022-11-20T13:26:14.682Z,1.50
2022-11-20T13:29:20.244Z,3.92
2022-11-20T13:32:19.195Z,1.58
2022-11-20T13:35:06.604Z,3.15
2022-11-20T13:38:04.490Z,2.00
2022-11-20T13:40:59.748Z,2.88
2022-11-20T13:43:49.124Z,5.10
2022-11-20T13:46:45.627Z,3.22
2022-11-20T13:49:45.811Z,4.85
2022-11-20T13:52:56.377Z,2.55
2022-11-20T13:56:32.523Z,2.95
2022-11-20T13:59:57.611Z,3.28
2022-11-20T14:02:50.104Z,17.10
2022-11-20T14:05:52.257Z,25.15
2022-11-20T14:08:44.236Z,20.13
2022-11-20T14:11:32.236Z,15.85
2022-11-20T14:14:22.188Z,28.95
2022-11-20T14:17:19.322Z,46.00
2022-11-20T14:20:12.800Z,32.10
2022-11-20T14:22:59.953Z,31.27
2022-11-20T14:25:47.051Z,38.08
2022-11-20T14:28:34.131Z,37.70
2022-11-20T14:31:26.127Z,45.42
2022-11-20T14:34:28.843Z,45.17
2022-11-20T14:37:22.769Z,39.53
2022-11-20T14:40:27.927Z,42.08
2022-11-20T14:43:29.057Z,49.13
2022-11-20T14:46:16.513Z,51.15
2022-11-20T14:49:05.154Z,46.83
2022-11-20T14:52:14.085Z,49.13
2022-11-20T14:55:01.004Z,44.65
2022-11-20T14:57:56.252Z,45.45
2022-11-20T15:00:53.837Z,43.53
2022-11-20T15:03:42.138Z,38.40
2022-11-20T15:06:29.395Z,37.33
2022-11-20T15:09:16.996Z,44.67
2022-11-20T15:12:04.872Z,41.78
2022-11-20T15:14:51.814Z,41.63
2022-11-20T15:17:41.814Z,34.42
2022-11-20T15:20:34.123Z,43.47
2022-11-20T15:23:21.150Z,41.80
2022-11-20T15:26:09.712Z,47.58
2022-11-20T15:28:56.686Z,49.47
2022-11-20T15:31:45.741Z,50.65
2022-11-20T15:34:32.893Z,47.00
2022-11-20T15:37:19.800Z,53.05
2022-11-20T15:40:08.002Z,50.15
2022-11-20T15:43:06.976Z,48.42
2022-11-20T15:46:02.339Z,49.85
2022-11-20T16:06:03.290Z,31.90
2022-11-20T16:08:50.241Z,8.48
2022-11-20T16:11:38.388Z,4.80
2022-11-20T16:14:43.752Z,1.92
2022-11-20T16:17:43.440Z,1.95
2022-11-20T16:20:30.437Z,1.42
2022-11-20T16:23:17.798Z,1.65
2022-11-20T16:26:14.802Z,1.30
2022-11-20T16:29:03.559Z,0.88
2022-11-20T16:31:50.514Z,1.20
2022-11-20T16:34:37.407Z,1.10
2022-11-20T16:37:24.310Z,1.00
2022-11-20T16:40:12.276Z,0.88
2022-11-20T16:43:08.570Z,2.65
2022-11-20T16:45:55.489Z,0.95
2022-11-20T16:48:42.402Z,1.15
2022-11-20T16:51:31.493Z,1.55
2022-11-20T16:54:21.265Z,3.35
2022-11-20T16:57:08.466Z,1.70
2022-11-20T17:00:00.327Z,2.75
2022-11-20T17:02:49.333Z,4.80
2022-11-20T17:05:36.310Z,3.53
2022-11-20T17:08:23.216Z,4.47
2022-11-20T17:11:13.691Z,5.00
2022-11-20T17:14:01.124Z,7.65
2022-11-20T17:16:47.982Z,6.43
2022-11-20T17:19:34.887Z,7.07
2022-11-20T17:22:21.753Z,4.75
2022-11-20T17:25:08.978Z,4.07
2022-11-20T17:27:55.893Z,4.22
2022-11-20T17:30:42.806Z,2.63
2022-11-20T17:33:30.337Z,4.40
2022-11-20T17:36:20.034Z,3.60
2022-11-20T17:39:07.047Z,5.72
2022-11-20T17:42:12.230Z,3.08
2022-11-20T17:44:59.058Z,2.67
2022-11-20T17:47:46.638Z,2.58
2022-11-20T17:50:33.492Z,2.53
2022-11-20T17:53:21.288Z,2.67
2022-11-20T17:56:26.964Z,3.03
2022-11-20T17:59:13.942Z,2.90
2022-11-20T18:02:03.670Z,2.42
2022-11-20T18:04:51.168Z,1.40
2022-11-20T18:07:41.921Z,2.38
2022-11-20T18:10:32.162Z,2.60
2022-11-20T18:13:18.954Z,2.10
2022-11-20T18:16:07.640Z,1.80
2022-11-20T18:18:58.242Z,3.00
2022-11-20T18:21:45.437Z,2.65
2022-11-20T18:24:32.975Z,5.05
2022-11-20T18:27:20.998Z,3.42
2022-11-20T18:30:08.616Z,6.30
2022-11-20T18:32:56.083Z,110.78
2022-11-20T18:35:43.239Z,145.63
2022-11-20T18:38:30.165Z,16.00
2022-11-20T18:41:38.249Z,9.77
2022-11-20T18:44:48.829Z,18.42
2022-11-20T18:47:39.099Z,18.27
2022-11-20T18:50:26.007Z,62.17
2022-11-20T18:53:12.900Z,63.05
2022-11-20T18:56:04.498Z,50.42
2022-11-20T18:58:51.482Z,8.32
2022-11-20T19:01:38.496Z,5.05
2022-11-20T19:04:25.797Z,9.95
2022-11-20T19:07:13.612Z,8.77
2022-11-20T19:10:03.732Z,10.35
2022-11-20T19:12:51.282Z,6.18
2022-11-20T19:15:38.300Z,5.43
2022-11-20T19:18:25.336Z,4.28
2022-11-20T19:21:15.929Z,3.13
2022-11-20T19:24:04.145Z,2.72
2022-11-20T19:26:51.134Z,4.38
2022-11-20T19:29:38.433Z,1.63
2022-11-20T19:32:25.599Z,5.35
2022-11-20T19:35:13.351Z,4.00
2022-11-20T19:38:05.293Z,6.53
2022-11-20T19:40:52.755Z,2.92
2022-11-20T19:43:39.825Z,6.32
2022-11-20T19:46:28.361Z,4.45
2022-11-20T19:49:15.432Z,6.05
2022-11-20T19:52:02.402Z,4.60
2022-11-20T19:54:49.501Z,6.03
2022-11-20T19:57:36.482Z,3.67
2022-11-20T20:00:29.613Z,4.03
2022-11-20T20:03:19.703Z,2.90
2022-11-20T20:06:13.548Z,2.67
2022-11-20T20:09:04.430Z,3.40
2022-11-20T20:11:51.320Z,2.78
2022-11-20T20:14:38.207Z,3.40
2022-11-20T20:17:25.152Z,2.20
2022-11-20T20:20:12.045Z,2.53
2022-11-20T20:22:58.867Z,2.42
2022-11-20T20:25:48.131Z,2.30
2022-11-20T20:28:36.579Z,2.10
2022-11-20T20:31:26.055Z,4.70
2022-11-20T20:34:13.034Z,2.38
2022-11-20T20:36:59.961Z,1.95
2022-11-20T20:39:46.991Z,2.20
2022-11-20T20:42:33.904Z,1.77
2022-11-20T20:45:20.898Z,1.77
2022-11-20T20:48:07.826Z,2.00
2022-11-20T20:50:56.432Z,1.88
2022-11-20T20:53:43.468Z,2.70
2022-11-20T20:56:30.464Z,4.18
2022-11-20T20:59:17.339Z,4.50
2022-11-20T21:02:04.459Z,4.38
2022-11-20T21:04:52.316Z,4.65
2022-11-20T21:07:59.107Z,2.88
2022-11-20T21:10:46.189Z,5.22
2022-11-20T21:13:35.016Z,2.63
2022-11-20T21:16:25.296Z,269.90
2022-11-20T21:19:12.409Z,99.38
2022-11-20T21:21:59.447Z,61.28
2022-11-20T21:24:46.440Z,18.10
2022-11-20T21:27:33.358Z,43.65
2022-11-20T21:30:20.218Z,39.17
2022-11-20T21:33:07.239Z,27.60
2022-11-20T21:35:54.338Z,9.75
2022-11-20T21:38:41.645Z,4.70
2022-11-20T21:41:32.715Z,16.02
2022-11-20T21:44:35.077Z,262.52
2022-11-20T21:47:22.128Z,806.93
2022-11-20T21:50:09.697Z,581.55
2022-11-20T21:52:56.573Z,410.10
2022-11-20T21:55:43.672Z,288.55
2022-11-20T21:58:31.435Z,241.90
2022-11-20T22:01:20.660Z,157.00
2022-11-20T22:04:08.142Z,133.63
2022-11-20T22:06:55.222Z,78.18
2022-11-20T22:09:42.138Z,47.20
2022-11-20T22:12:29.012Z,37.33
2022-11-20T22:15:27.944Z,29.67
2022-11-20T22:18:22.848Z,21.38
2022-11-20T22:21:10.201Z,20.98
2022-11-20T22:23:57.462Z,20.80
2022-11-20T22:26:44.483Z,38.65
2022-11-20T22:29:31.754Z,45.00
2022-11-20T22:32:18.820Z,9.60
2022-11-20T22:35:05.972Z,8.23
2022-11-20T22:37:52.858Z,9.90
2022-11-20T22:40:40.057Z,4.80
2022-11-20T22:43:27.116Z,3.85
2022-11-20T22:46:16.914Z,6.25
2022-11-20T22:49:06.825Z,7.45
2022-11-20T22:51:53.917Z,4.57
2022-11-20T22:54:41.036Z,3.17
2022-11-20T22:57:27.936Z,6.20
2022-11-20T23:00:15.584Z,4.15
2022-11-20T23:03:02.708Z,3.55
2022-11-20T23:05:49.828Z,6.25
2022-11-20T23:08:38.459Z,5.03
2022-11-20T23:11:27.976Z,5.15
2022-11-20T23:14:16.039Z,4.93
2022-11-20T23:17:03.128Z,3.22
2022-11-20T23:19:50.023Z,2.30
2022-11-20T23:22:36.922Z,5.57
2022-11-20T23:25:24.023Z,4.30
2022-11-20T23:28:11.157Z,3.72
2022-11-20T23:30:58.608Z,6.40
2022-11-20T23:33:46.352Z,4.13
2022-11-20T23:36:33.481Z,5.05
2022-11-20T23:39:20.574Z,4.15
2022-11-20T23:42:07.488Z,3.03
2022-11-20T23:44:54.386Z,4.97
2022-11-20T23:47:41.503Z,3.22
2022-11-20T23:50:28.595Z,5.97
2022-11-20T23:53:16.517Z,6.10
2022-11-20T23:56:05.206Z,1.98
2022-11-20T23:58:52.332Z,4.00
